Time;durP1;ratioP1;P1;durP2;ratioP2;P2;SDS_P1;SDS_P2;PMS_P1;PMS_P2;Temp;Humidity;BMP_temperature;BMP_pressure;BME280_temperature;BME280_humidity;BME280_pressure;Samples;Min_cycle;Max_cycle;Signal;HPM_P1;HPM_P2
2021/01/05 00:02:31;;;;;;;82.57;42.87;;;;;;;3.59;82.01;98545.36;2297064;77;21078;-76
2021/01/05 00:05:32;;;;;;;80.13;40.00;;;;;;;3.62;82.00;98548.92;2297496;77;21121;-79
2021/01/05 00:08:33;;;;;;;78.03;40.33;;;;;;;3.62;82.02;98539.89;2297162;77;21125;-78
2021/01/05 00:11:34;;;;;;;85.87;45.37;;;;;;;3.67;81.90;98546.09;2296522;77;21133;-78
2021/01/05 00:14:35;;;;;;;66.20;34.33;;;;;;;3.70;81.76;98535.87;2296734;77;21108;-78
2021/01/05 00:17:36;;;;;;;72.93;36.03;;;;;;;3.71;81.90;98538.03;2297526;77;21122;-79
2021/01/05 00:20:41;;;;;;;76.30;36.43;;;;;;;3.75;81.91;98539.48;2297547;77;21431;-78
2021/01/05 00:23:42;;;;;;;71.97;36.35;;;;;;;3.77;81.74;98528.80;2297348;77;21356;-77
2021/01/05 00:26:43;;;;;;;72.80;35.47;;;;;;;3.79;81.76;98524.56;2297547;77;21118;-79
2021/01/05 00:29:44;;;;;;;70.97;36.83;;;;;;;3.79;81.65;98512.94;2297398;77;21137;-79
2021/01/05 00:32:47;;;;;;;77.37;38.20;;;;;;;3.82;81.64;98507.00;2297242;77;21456;-79
2021/01/05 00:35:48;;;;;;;77.07;37.70;;;;;;;3.87;81.67;98508.44;2297190;77;21353;-79
2021/01/05 00:38:50;;;;;;;71.97;33.67;;;;;;;3.88;81.69;98503.73;2297199;77;21176;-79
2021/01/05 00:41:51;;;;;;;79.50;38.07;;;;;;;3.89;81.72;98504.20;2297337;77;21129;-79
2021/01/05 00:44:52;;;;;;;74.10;35.33;;;;;;;3.94;81.68;98501.36;2296955;77;21133;-79
2021/01/05 00:47:53;;;;;;;70.73;33.73;;;;;;;4.00;81.54;98495.09;2296652;77;21133;-78
2021/01/05 00:50:54;;;;;;;71.70;34.03;;;;;;;3.98;81.53;98500.63;2296644;77;21129;-78
2021/01/05 00:53:55;;;;;;;64.27;31.60;;;;;;;3.95;81.57;98497.95;2296643;77;21547;-79
2021/01/05 00:56:56;;;;;;;66.77;32.40;;;;;;;3.95;81.58;98499.23;2295334;77;21149;-80
2021/01/05 00:59:57;;;;;;;60.47;32.07;;;;;;;3.96;81.57;98502.28;2294628;77;21125;-79
2021/01/05 01:02:58;;;;;;;66.57;30.50;;;;;;;4.01;81.59;98496.44;2295098;77;21459;-78
2021/01/05 01:06:00;;;;;;;60.27;31.70;;;;;;;4.04;81.59;98499.12;2295490;77;21252;-78
2021/01/05 01:09:01;;;;;;;83.50;35.70;;;;;;;4.07;81.41;98499.22;2295625;77;21114;-78
2021/01/05 01:12:02;;;;;;;71.80;34.30;;;;;;;4.11;81.50;98507.52;2295697;77;21125;-78
2021/01/05 01:15:03;;;;;;;74.17;35.27;;;;;;;4.04;81.47;98496.53;2295991;77;21396;-78
2021/01/05 01:18:04;;;;;;;71.40;35.23;;;;;;;4.03;81.58;98501.23;2295891;77;21134;-78
2021/01/05 01:21:05;;;;;;;74.23;32.70;;;;;;;4.01;81.56;98496.44;2294977;77;21137;-78
2021/01/05 01:24:06;;;;;;;83.37;33.77;;;;;;;4.04;81.63;98502.99;2295602;77;21125;-78
2021/01/05 01:27:07;;;;;;;64.80;33.43;;;;;;;4.08;81.60;98497.51;2296274;77;21133;-78
2021/01/05 01:30:08;;;;;;;64.17;32.27;;;;;;;4.08;81.58;98489.77;2295823;77;21126;-78
2021/01/05 01:33:09;;;;;;;74.37;33.67;;;;;;;4.11;81.69;98489.44;2296193;77;21122;-79
2021/01/05 01:36:10;;;;;;;80.13;33.93;;;;;;;4.13;81.67;98481.73;2295383;77;21423;-79
2021/01/05 01:39:11;;;;;;;65.30;32.33;;;;;;;4.10;81.65;98478.65;2295331;77;21152;-78
2021/01/05 01:42:12;;;;;;;64.87;31.67;;;;;;;4.09;81.91;98479.89;2295336;77;21733;-78
2021/01/05 01:45:13;;;;;;;68.10;32.07;;;;;;;4.03;81.80;98468.95;2295383;77;21126;-78
2021/01/05 01:48:14;;;;;;;71.37;33.20;;;;;;;4.05;81.75;98466.00;2295508;77;21134;-78
2021/01/05 01:51:15;;;;;;;66.10;32.43;;;;;;;4.06;81.99;98461.72;2295557;77;21137;-78
2021/01/05 01:54:16;;;;;;;77.90;33.30;;;;;;;4.05;82.12;98446.63;2295932;78;21149;-78
2021/01/05 01:57:17;;;;;;;70.63;31.83;;;;;;;4.04;81.99;98453.05;2295791;77;21418;-78
2021/01/05 02:00:21;;;;;;;75.07;34.53;;;;;;;4.03;82.15;98445.70;2295677;77;21129;-78
2021/01/05 02:03:22;;;;;;;67.47;31.50;;;;;;;4.04;82.22;98446.59;2296373;77;21113;-78
2021/01/05 02:06:26;;;;;;;68.37;31.27;;;;;;;4.04;82.19;98440.13;2295690;77;21118;-79
2021/01/05 02:09:27;;;;;;;55.80;30.23;;;;;;;4.04;82.25;98440.13;2296040;77;21149;-79
2021/01/05 02:12:28;;;;;;;61.50;30.00;;;;;;;4.03;82.26;98437.09;2295438;77;21129;-79
2021/01/05 02:15:29;;;;;;;56.57;28.73;;;;;;;4.01;82.34;98435.75;2295138;77;21094;-79
2021/01/05 02:18:31;;;;;;;51.13;26.93;;;;;;;4.01;82.33;98435.75;2296141;77;21075;-79
2021/01/05 02:21:32;;;;;;;53.07;26.63;;;;;;;4.06;82.29;98430.72;2295468;77;21126;-79
2021/01/05 02:24:33;;;;;;;52.97;27.87;;;;;;;4.08;82.23;98425.19;2295601;77;21192;-79
2021/01/05 02:27:34;;;;;;;54.53;29.07;;;;;;;4.11;82.21;98427.86;2295113;77;21141;-79
2021/01/05 02:30:35;;;;;;;49.40;27.30;;;;;;;4.14;82.23;98417.63;2294886;77;21106;-79
2021/01/05 02:33:36;;;;;;;47.70;26.43;;;;;;;4.13;82.18;98410.70;2295181;78;21181;-79
2021/01/05 02:36:37;;;;;;;55.70;28.73;;;;;;;4.10;82.22;98408.91;2295215;77;21125;-79
2021/01/05 02:39:38;;;;;;;47.50;24.80;;;;;;;4.09;82.23;98408.86;2295717;77;21376;-79
2021/01/05 02:42:39;;;;;;;46.13;24.90;;;;;;;4.06;82.25;98406.19;2295436;77;21444;-78
2021/01/05 02:45:40;;;;;;;43.23;25.03;;;;;;;4.08;82.39;98408.41;2296022;77;21121;-79
2021/01/05 02:48:41;;;;;;;43.30;24.50;;;;;;;4.10;82.33;98406.33;2295453;77;21122;-79
2021/01/05 02:51:42;;;;;;;40.53;23.67;;;;;;;4.11;82.36;98405.49;2295277;77;21094;-79
2021/01/05 02:54:43;;;;;;;39.60;24.83;;;;;;;4.13;82.25;98393.50;2295265;78;21210;-80
2021/01/05 02:57:45;;;;;;;39.10;23.97;;;;;;;4.13;82.38;98397.38;2295940;77;21181;-80
2021/01/05 03:00:46;;;;;;;39.67;23.10;;;;;;;4.09;82.36;98389.48;2296447;77;21122;-80
2021/01/05 03:03:47;;;;;;;33.40;20.30;;;;;;;4.06;82.39;98379.94;2294922;77;21134;-78
2021/01/05 03:06:48;;;;;;;39.70;22.73;;;;;;;4.08;82.35;98382.57;2294990;77;21121;-79
2021/01/05 03:09:49;;;;;;;37.13;21.97;;;;;;;4.09;82.39;98382.62;2295826;77;21438;-79
2021/01/05 03:12:54;;;;;;;36.93;22.60;;;;;;;4.11;82.32;98378.79;2295760;77;21383;-79
2021/01/05 03:15:54;;;;;;;35.93;20.93;;;;;;;4.10;82.42;98365.41;2288030;78;21165;-79
2021/01/05 03:18:55;;;;;;;31.30;19.33;;;;;;;4.11;82.38;98371.91;2287031;78;21141;-79
2021/01/05 03:21:56;;;;;;;29.73;19.50;;;;;;;4.11;82.29;98361.58;2286926;78;21395;-80
2021/01/05 03:24:58;;;;;;;28.67;17.77;;;;;;;4.10;82.33;98361.54;2287316;78;21121;-80
2021/01/05 03:27:59;;;;;;;25.63;17.37;;;;;;;4.14;82.30;98351.76;2287187;78;21114;-79
2021/01/05 03:31:00;;;;;;;23.87;17.03;;;;;;;4.14;82.27;98357.80;2286779;78;21268;-80
2021/01/05 03:34:01;;;;;;;24.33;16.57;;;;;;;4.13;82.29;98351.30;2287488;78;21158;-81
2021/01/05 03:37:02;;;;;;;24.07;15.83;;;;;;;4.12;82.25;98347.84;2286556;78;21388;-80
2021/01/05 03:40:03;;;;;;;26.47;17.43;;;;;;;4.12;82.32;98348.25;2287781;78;21125;-80
2021/01/05 03:43:04;;;;;;;22.83;14.67;;;;;;;4.14;82.44;98347.47;2288569;78;21121;-80
2021/01/05 03:46:05;;;;;;;22.23;14.83;;;;;;;4.08;82.43;98338.66;2288231;78;21118;-83
2021/01/05 03:49:13;;;;;;;20.83;14.13;;;;;;;4.04;82.53;98338.11;2288390;78;21090;-81
2021/01/05 03:52:15;;;;;;;21.43;13.87;;;;;;;4.02;82.70;98334.20;2288254;78;21153;-81
2021/01/05 03:55:16;;;;;;;20.43;13.87;;;;;;;3.98;82.81;98332.77;2287868;78;21137;-82
2021/01/05 03:58:17;;;;;;;20.43;13.23;;;;;;;3.95;82.84;98327.09;2287465;77;21110;-81
2021/01/05 04:01:18;;;;;;;18.90;13.73;;;;;;;3.94;82.90;98330.93;2287776;78;21187;-82
2021/01/05 04:04:19;;;;;;;19.30;13.43;;;;;;;3.93;82.98;98331.34;2287897;78;21606;-81
2021/01/05 04:07:20;;;;;;;21.73;13.93;;;;;;;3.94;83.13;98327.05;2287611;78;21129;-83
2021/01/05 04:10:21;;;;;;;24.63;13.77;;;;;;;5.22;90.13;98319.83;2287291;78;21113;-83
2021/01/05 04:13:23;;;;;;;20.20;12.43;;;;;;;7.89;91.03;98308.22;2287942;78;21161;-84
2021/01/05 04:16:24;;;;;;;17.70;11.33;;;;;;;9.95;86.92;98301.20;2287831;78;21152;-82
2021/01/05 04:19:25;;;;;;;16.03;12.10;;;;;;;11.07;80.73;98285.98;2288007;78;21126;-82
2021/01/05 04:22:26;;;;;;;13.07;10.37;;;;;;;11.60;77.73;98286.87;2288153;78;21114;-81
2021/01/05 04:25:27;;;;;;;13.40;10.87;;;;;;;12.62;72.63;98290.10;2288384;78;21249;-81
2021/01/05 04:28:28;;;;;;;13.67;10.23;;;;;;;12.54;70.48;98287.09;2287742;78;21430;-81
2021/01/05 04:31:29;;;;;;;16.90;11.67;;;;;;;12.84;71.50;98282.12;2287400;78;21098;-81
2021/01/05 04:34:30;;;;;;;13.60;10.10;;;;;;;12.72;69.22;98283.94;2287484;78;21153;-81
2021/01/05 04:37:32;;;;;;;11.25;9.95;;;;;;;12.48;63.48;98287.98;2287566;78;21125;-81
2021/01/05 04:40:33;;;;;;;13.93;8.95;;;;;;;10.99;66.23;98290.76;2287538;78;21472;-81
2021/01/05 04:43:34;;;;;;;12.07;10.05;;;;;;;11.39;69.42;98288.63;2286833;78;21142;-81
2021/01/05 04:46:35;;;;;;;9.87;8.80;;;;;;;11.16;66.56;98279.45;2286265;78;21721;-81
2021/01/05 04:49:36;;;;;;;14.20;9.10;;;;;;;12.32;67.44;98277.16;2285889;78;21146;-82
2021/01/05 04:52:37;;;;;;;11.53;9.15;;;;;;;13.19;63.75;98271.47;2285550;78;21165;-84
2021/01/05 04:55:38;;;;;;;11.75;9.05;;;;;;;12.69;62.04;98271.30;2285700;78;21145;-80
2021/01/05 04:58:39;;;;;;;19.32;10.32;;;;;;;12.40;61.97;98268.84;2284958;77;21149;-81
2021/01/05 05:01:40;;;;;;;11.57;8.83;;;;;;;12.89;61.53;98272.05;2284238;78;21083;-82
2021/01/05 05:04:41;;;;;;;14.10;8.30;;;;;;;13.64;63.34;98270.20;2284980;78;21086;-81
2021/01/05 05:07:42;;;;;;;12.28;8.38;;;;;;;14.34;61.33;98269.46;2284180;78;21118;-79
2021/01/05 05:10:43;;;;;;;9.65;8.53;;;;;;;14.54;60.27;98259.60;2284749;78;21126;-79
2021/01/05 05:13:45;;;;;;;11.55;8.20;;;;;;;14.98;56.05;98254.19;2285013;78;21300;-79
2021/01/05 05:16:46;;;;;;;8.40;6.92;;;;;;;14.83;58.98;98256.60;2284701;78;21369;-79
2021/01/05 05:19:47;;;;;;;8.50;7.53;;;;;;;15.04;59.54;98254.55;2283908;78;21094;-81
2021/01/05 05:22:48;;;;;;;9.53;7.12;;;;;;;15.64;57.86;98250.55;2283955;78;21149;-79
2021/01/05 05:25:49;;;;;;;16.75;8.55;;;;;;;15.41;54.12;98246.93;2284258;78;21508;-79
2021/01/05 05:28:50;;;;;;;9.58;7.05;;;;;;;14.80;58.26;98241.33;2284250;78;21106;-78
2021/01/05 05:31:51;;;;;;;11.63;8.13;;;;;;;15.00;56.41;98241.90;2284670;78;21446;-78
2021/01/05 05:34:52;;;;;;;10.50;7.20;;;;;;;14.91;57.19;98235.02;2285438;78;21146;-78
2021/01/05 05:37:53;;;;;;;7.95;6.83;;;;;;;15.02;53.95;98231.36;2286522;78;21137;-79
2021/01/05 05:40:54;;;;;;;7.45;6.75;;;;;;;14.53;57.13;98233.36;2286793;78;21113;-80
2021/01/05 05:43:58;;;;;;;9.18;6.78;;;;;;;14.97;54.05;98227.48;2286184;78;21110;-81
2021/01/05 05:46:59;;;;;;;6.83;6.20;;;;;;;15.15;55.99;98225.02;2286094;78;21091;-78
2021/01/05 05:50:00;;;;;;;7.62;6.80;;;;;;;13.50;52.35;98221.82;2267373;78;21082;-78
2021/01/05 05:53:01;;;;;;;7.10;6.40;;;;;;;12.65;57.66;98225.94;2285335;77;21171;-78
2021/01/05 05:56:02;;;;;;;9.63;6.55;;;;;;;13.79;59.85;98222.83;2283522;77;21459;-78
2021/01/05 05:59:03;;;;;;;9.15;5.90;;;;;;;14.78;57.50;98215.52;2285114;78;21118;-78
2021/01/05 06:02:05;;;;;;;9.28;6.20;;;;;;;14.48;57.67;98212.41;2284272;78;21149;-80
2021/01/05 06:05:06;;;;;;;7.53;6.08;;;;;;;15.19;56.26;98208.30;2284784;78;21090;-82
2021/01/05 06:08:07;;;;;;;26.05;9.40;;;;;;;15.33;55.26;98208.06;2286337;78;21394;-83
2021/01/05 06:11:08;;;;;;;5.42;4.90;;;;;;;15.66;55.74;98207.53;2285975;78;21137;-79
2021/01/05 06:14:09;;;;;;;5.20;4.70;;;;;;;12.96;50.84;98217.86;2285055;78;21280;-82
2021/01/05 06:17:10;;;;;;;5.42;4.62;;;;;;;10.47;54.71;98221.49;2285097;78;21440;-82
2021/01/05 06:20:11;;;;;;;6.90;5.80;;;;;;;8.94;58.14;98221.02;2285688;78;21122;-82
2021/01/05 06:23:12;;;;;;;29.70;16.63;;;;;;;7.92;60.96;98216.87;2285633;78;21499;-82
2021/01/05 06:26:13;;;;;;;103.43;47.37;;;;;;;7.14;63.27;98221.81;2285518;78;21125;-81
2021/01/05 06:29:14;;;;;;;28.73;17.80;;;;;;;6.64;65.00;98218.81;2284924;77;21691;-84
2021/01/05 06:32:15;;;;;;;20.97;15.10;;;;;;;6.22;67.20;98227.11;2285263;78;21126;-83
2021/01/05 06:35:17;;;;;;;8.87;7.93;;;;;;;5.94;67.86;98225.66;2284714;78;21240;-81
2021/01/05 06:38:18;;;;;;;6.13;5.53;;;;;;;5.64;69.43;98220.27;2283888;78;21118;-80
2021/01/05 06:41:19;;;;;;;5.47;4.90;;;;;;;5.42;70.75;98221.95;2284222;78;21118;-80
2021/01/05 06:44:20;;;;;;;5.33;4.70;;;;;;;5.16;71.32;98221.75;2283667;78;21157;-81
2021/01/05 06:47:21;;;;;;;4.47;4.03;;;;;;;5.07;71.69;98226.28;2284160;77;21126;-81
2021/01/05 06:50:22;;;;;;;5.00;4.40;;;;;;;4.97;72.50;98225.61;2284913;78;21083;-83
2021/01/05 06:53:23;;;;;;;4.73;4.33;;;;;;;4.93;72.80;98219.91;2284245;78;21643;-82
2021/01/05 06:56:24;;;;;;;4.27;3.70;;;;;;;4.87;73.35;98212.88;2283488;78;21118;-80
2021/01/05 06:59:25;;;;;;;6.23;4.97;;;;;;;4.81;74.12;98216.61;2284045;78;21122;-81
2021/01/05 07:02:26;;;;;;;9.40;5.43;;;;;;;4.75;75.60;98211.30;2284642;77;21113;-81
2021/01/05 07:05:27;;;;;;;4.83;4.20;;;;;;;4.71;74.33;98209.47;2282910;78;21106;-81
2021/01/05 07:08:28;;;;;;;5.43;4.53;;;;;;;4.67;74.49;98206.35;2283318;78;21833;-80
2021/01/05 07:11:29;;;;;;;5.00;4.50;;;;;;;4.69;75.54;98205.97;2284997;78;21576;-82
2021/01/05 07:14:31;;;;;;;8.93;5.03;;;;;;;4.64;75.53;98199.81;2284538;78;21157;-81
2021/01/05 07:17:32;;;;;;;5.60;3.40;;;;;;;4.58;75.39;98200.95;2284895;78;21110;-80
2021/01/05 07:20:33;;;;;;;4.33;3.50;;;;;;;4.56;75.86;98194.87;2284083;78;21468;-81
2021/01/05 07:23:34;;;;;;;4.43;4.03;;;;;;;4.51;75.63;98197.77;2284535;78;21122;-81
2021/01/05 07:26:35;;;;;;;8.57;5.77;;;;;;;4.51;76.12;98196.05;2283625;78;21110;-81
2021/01/05 07:29:36;;;;;;;16.90;9.23;;;;;;;4.50;76.66;98195.59;2284780;78;21131;-81
2021/01/05 07:32:37;;;;;;;11.87;7.70;;;;;;;4.46;77.29;98191.18;2284633;78;21280;-81
2021/01/05 07:35:38;;;;;;;6.13;4.60;;;;;;;4.41;77.35;98189.77;2284275;78;21082;-80
2021/01/05 07:38:39;;;;;;;3.77;3.47;;;;;;;4.38;77.81;98191.41;2283993;78;21657;-80
2021/01/05 07:41:40;;;;;;;4.20;3.63;;;;;;;4.37;77.78;98196.99;2284125;78;21114;-80
2021/01/05 07:44:41;;;;;;;3.47;3.17;;;;;;;4.34;77.43;98187.00;2284678;78;21094;-80
2021/01/05 07:47:43;;;;;;;4.00;3.23;;;;;;;4.29;78.02;98181.67;2284137;78;21106;-81
2021/01/05 07:50:44;;;;;;;4.43;3.60;;;;;;;4.24;77.55;98181.97;2285607;78;21114;-83
2021/01/05 07:53:45;;;;;;;2.87;2.67;;;;;;;4.22;77.83;98175.02;2284812;78;21510;-79
2021/01/05 07:56:46;;;;;;;3.33;3.03;;;;;;;4.20;78.03;98176.27;2283989;78;21450;-80
2021/01/05 07:59:47;;;;;;;15.50;7.57;;;;;;;4.16;77.84;98178.31;2284902;78;21118;-79
2021/01/05 08:02:48;;;;;;;4.30;3.87;;;;;;;4.15;77.86;98168.41;2284466;77;21114;-80
2021/01/05 08:05:50;;;;;;;5.23;4.73;;;;;;;4.18;78.31;98170.61;2283915;78;21114;-80
2021/01/05 08:08:51;;;;;;;5.47;4.00;;;;;;;4.18;78.31;98168.90;2284375;78;21125;-81
2021/01/05 08:11:52;;;;;;;4.57;3.43;;;;;;;4.16;78.24;98170.56;2284211;77;21121;-80
2021/01/05 08:14:54;;;;;;;1.70;1.60;;;;;;;4.12;78.42;98168.73;2284840;78;21247;-80
2021/01/05 08:17:55;;;;;;;6.57;5.87;;;;;;;4.09;78.61;98164.78;2284595;78;21118;-80
2021/01/05 08:20:56;;;;;;;5.27;4.73;;;;;;;4.08;78.29;98165.62;2284945;78;21126;-80
2021/01/05 08:23:57;;;;;;;7.57;4.83;;;;;;;4.08;78.38;98159.16;2285535;78;21121;-79
2021/01/05 08:26:58;;;;;;;19.23;10.40;;;;;;;4.10;78.92;98158.37;2285453;78;21130;-80
2021/01/05 08:29:59;;;;;;;27.73;13.10;;;;;;;4.11;78.58;98160.12;2284922;78;21126;-81
2021/01/05 08:33:01;;;;;;;17.97;10.53;;;;;;;4.10;78.55;98154.49;2285517;78;21122;-79
2021/01/05 08:36:02;;;;;;;9.37;7.10;;;;;;;4.11;78.61;98160.12;2284685;78;21121;-80
2021/01/05 08:39:03;;;;;;;3.57;2.80;;;;;;;4.13;78.69;98163.61;2284659;78;21130;-80
2021/01/05 08:42:04;;;;;;;7.17;6.40;;;;;;;4.13;78.76;98161.45;2284029;78;21392;-81
2021/01/05 08:45:05;;;;;;;15.20;13.47;;;;;;;4.06;78.62;98164.28;2284791;78;21098;-79
2021/01/05 08:48:06;;;;;;;6.43;5.80;;;;;;;4.02;78.82;98156.42;2284908;78;21090;-79
2021/01/05 08:51:08;;;;;;;8.53;7.63;;;;;;;3.93;78.62;98149.72;2284213;78;21122;-79
2021/01/05 08:54:09;;;;;;;5.57;5.07;;;;;;;3.93;78.84;98148.42;2284514;78;21153;-79
2021/01/05 08:57:10;;;;;;;6.13;5.63;;;;;;;3.93;78.81;98151.89;2284720;77;21150;-81
2021/01/05 09:00:11;;;;;;;6.07;5.57;;;;;;;3.94;78.77;98148.89;2283274;78;21399;-79
2021/01/05 09:03:12;;;;;;;20.13;16.07;;;;;;;3.95;78.76;98149.34;2283726;78;21098;-79
2021/01/05 09:06:14;;;;;;;51.30;32.27;;;;;;;3.97;78.85;98150.26;2282848;78;21232;-81
2021/01/05 09:09:15;;;;;;;42.83;35.80;;;;;;;3.97;78.80;98147.67;2282411;78;21181;-80
2021/01/05 09:12:16;;;;;;;7.03;4.73;;;;;;;3.96;78.81;98136.47;2283034;78;21703;-80
2021/01/05 09:15:17;;;;;;;3.53;2.60;;;;;;;4.00;79.13;98137.43;2284695;78;21141;-80
2021/01/05 09:18:18;;;;;;;6.60;4.97;;;;;;;3.96;78.93;98132.59;2284335;78;21114;-80
2021/01/05 09:21:22;;;;;;;7.07;5.03;;;;;;;3.92;78.87;98135.94;2284097;78;21460;-80
2021/01/05 09:24:22;;;;;;;8.90;5.37;;;;;;;3.94;78.97;98138.56;2283116;78;21114;-80
2021/01/05 09:27:23;;;;;;;6.90;4.27;;;;;;;3.93;78.82;98127.77;2283261;78;21149;-79
2021/01/05 09:30:24;;;;;;;8.63;4.13;;;;;;;3.92;78.97;98128.61;2283917;78;21122;-79
2021/01/05 09:33:25;;;;;;;36.87;9.33;;;;;;;3.88;79.12;98121.61;2283134;78;21491;-79
2021/01/05 09:36:30;;;;;;;9.27;5.30;;;;;;;3.91;79.20;98111.36;2283979;78;21118;-78
2021/01/05 09:39:31;;;;;;;10.30;5.80;;;;;;;3.91;79.20;98111.36;2283984;78;21589;-78
2021/01/05 09:42:32;;;;;;;7.77;3.70;;;;;;;3.90;79.45;98118.66;2284249;78;21134;-79
2021/01/05 09:45:35;;;;;;;8.47;5.37;;;;;;;3.93;79.10;98108.41;2283903;78;21122;-80
2021/01/05 09:48:36;;;;;;;5.47;3.50;;;;;;;3.95;79.25;98106.32;2284679;78;21768;-79
2021/01/05 09:51:37;;;;;;;4.60;3.43;;;;;;;3.98;79.13;98100.36;2284004;78;21130;-80
2021/01/05 09:54:39;;;;;;;7.40;4.40;;;;;;;3.99;79.16;98099.11;2283865;78;21114;-79
2021/01/05 09:57:40;;;;;;;11.67;9.23;;;;;;;4.00;79.30;98090.95;2285413;78;21252;-79
2021/01/05 10:00:43;;;;;;;9.40;5.73;;;;;;;4.04;79.20;98095.36;2284715;78;21428;-80
2021/01/05 10:03:45;;;;;;;4.93;3.80;;;;;;;4.09;79.34;98087.30;2284560;78;21122;-79
2021/01/05 10:06:46;;;;;;;6.13;4.70;;;;;;;4.04;79.43;98080.73;2283942;78;21236;-80
2021/01/05 10:09:47;;;;;;;8.07;5.80;;;;;;;4.03;79.24;98084.56;2284214;78;21726;-79
2021/01/05 10:12:48;;;;;;;7.43;4.90;;;;;;;4.03;79.50;98076.41;2283802;78;21277;-79
2021/01/05 10:15:51;;;;;;;6.00;4.30;;;;;;;4.03;79.35;98080.70;2283325;78;21117;-79
2021/01/05 10:18:52;;;;;;;4.93;4.20;;;;;;;4.05;79.53;98074.73;2284115;78;21408;-79
2021/01/05 10:21:53;;;;;;;4.63;4.00;;;;;;;4.07;79.50;98073.06;2284034;78;21103;-79
2021/01/05 10:24:56;;;;;;;4.43;3.63;;;;;;;4.07;79.63;98072.19;2284823;78;21114;-78
2021/01/05 10:27:57;;;;;;;3.50;3.17;;;;;;;4.04;79.55;98061.36;2285013;78;21129;-80
2021/01/05 10:31:00;;;;;;;3.53;3.23;;;;;;;4.01;79.67;98057.41;2284150;78;21118;-79
2021/01/05 10:34:01;;;;;;;4.67;4.27;;;;;;;4.02;79.76;98058.29;2284288;78;21137;-78
2021/01/05 10:37:02;;;;;;;3.07;2.77;;;;;;;4.08;79.96;98059.73;2284465;78;21134;-79
2021/01/05 10:40:03;;;;;;;7.17;3.63;;;;;;;4.11;79.67;98061.09;2285283;78;21114;-79
2021/01/05 10:43:04;;;;;;;4.00;3.17;;;;;;;4.14;79.87;98053.42;2284674;78;21381;-81
2021/01/05 10:46:06;;;;;;;4.70;2.80;;;;;;;4.15;79.91;98048.71;2284796;78;21086;-79
2021/01/05 10:49:08;;;;;;;7.27;3.80;;;;;;;4.11;79.75;98043.89;2284356;78;21094;-78
2021/01/05 10:52:10;;;;;;;7.00;5.93;;;;;;;4.12;79.97;98040.47;2283803;78;21110;-79
2021/01/05 10:55:13;;;;;;;6.23;4.23;;;;;;;4.16;80.18;98038.84;2284984;78;21130;-79
2021/01/05 10:58:14;;;;;;;4.30;3.40;;;;;;;4.19;80.11;98033.74;2282521;78;21154;-79
2021/01/05 11:01:15;;;;;;;4.03;3.07;;;;;;;4.21;80.10;98028.61;2275340;78;21082;-79
2021/01/05 11:04:16;;;;;;;6.93;5.10;;;;;;;4.26;80.20;98033.05;2274247;78;21236;-79
2021/01/05 11:07:18;;;;;;;5.63;3.60;;;;;;;4.33;80.29;98029.77;2273944;78;21261;-80
2021/01/05 11:10:19;;;;;;;7.23;3.97;;;;;;;4.37;80.03;98026.45;2274467;78;21094;-79
2021/01/05 11:13:20;;;;;;;4.73;3.70;;;;;;;4.46;80.01;98027.95;2274515;78;21277;-80
2021/01/05 11:16:21;;;;;;;4.40;3.10;;;;;;;4.50;79.78;98020.27;2274339;78;21071;-81
2021/01/05 11:19:22;;;;;;;4.67;2.77;;;;;;;4.48;79.86;98019.81;2274494;78;21106;-78
2021/01/05 11:22:23;;;;;;;4.37;3.27;;;;;;;4.45;79.86;98013.71;2274796;78;21240;-79
2021/01/05 11:25:24;;;;;;;5.23;3.37;;;;;;;4.46;79.80;98016.75;2275256;78;21110;-80
2021/01/05 11:28:25;;;;;;;5.63;4.20;;;;;;;4.45;79.94;98015.88;2275114;78;21431;-79
2021/01/05 11:31:27;;;;;;;4.97;3.80;;;;;;;4.41;79.87;98011.48;2274847;78;21099;-79
2021/01/05 11:34:28;;;;;;;4.13;3.73;;;;;;;4.41;80.02;98008.89;2275116;78;21319;-79
2021/01/05 11:37:30;;;;;;;4.53;3.30;;;;;;;4.44;80.06;98003.80;2274246;78;21256;-81
2021/01/05 11:40:31;;;;;;;3.83;3.17;;;;;;;4.50;80.07;98003.47;2274907;78;21236;-79
2021/01/05 11:43:32;;;;;;;5.80;3.93;;;;;;;4.57;79.88;97999.77;2275150;78;21476;-79
2021/01/05 11:46:33;;;;;;;4.17;3.57;;;;;;;4.63;79.92;97988.69;2275589;78;21133;-81
2021/01/05 11:49:34;;;;;;;5.87;4.03;;;;;;;4.67;79.89;97985.33;2275459;78;21257;-80
2021/01/05 11:52:35;;;;;;;4.63;3.70;;;;;;;4.71;79.99;97988.42;2275734;78;21277;-80
2021/01/05 11:55:36;;;;;;;4.83;3.60;;;;;;;4.68;79.71;97985.36;2274619;78;21248;-80
2021/01/05 11:58:37;;;;;;;4.10;2.97;;;;;;;4.72;79.83;97986.30;2275516;78;21150;-82
2021/01/05 12:01:38;;;;;;;3.57;3.20;;;;;;;4.71;79.80;97982.84;2275071;78;21126;-80
2021/01/05 12:04:40;;;;;;;6.07;4.07;;;;;;;4.68;79.79;97988.36;2275090;78;21126;-80
2021/01/05 12:07:41;;;;;;;6.70;4.37;;;;;;;4.62;79.88;97985.23;2275215;78;21411;-80
2021/01/05 12:10:42;;;;;;;13.70;7.43;;;;;;;4.62;80.06;97987.81;2274419;78;21244;-79
2021/01/05 12:13:43;;;;;;;5.57;4.20;;;;;;;4.66;80.36;97983.58;2275820;78;21272;-79
2021/01/05 12:16:44;;;;;;;6.67;4.73;;;;;;;4.64;80.31;97983.97;2275982;78;21129;-79
2021/01/05 12:19:45;;;;;;;17.77;7.83;;;;;;;4.60;80.43;97975.70;2275921;78;21381;-79
2021/01/05 12:22:46;;;;;;;14.63;7.70;;;;;;;4.62;80.28;97971.43;2274980;78;21149;-78
2021/01/05 12:25:47;;;;;;;12.27;6.73;;;;;;;4.70;80.46;97971.17;2274737;78;21325;-79
2021/01/05 12:28:48;;;;;;;9.47;7.97;;;;;;;4.77;80.39;97973.05;2274615;78;21969;-79
2021/01/05 12:31:50;;;;;;;11.60;7.60;;;;;;;4.79;80.43;97974.82;2275024;78;21824;-81
2021/01/05 12:34:54;;;;;;;8.13;6.65;;;;;;;4.87;80.30;97975.40;2264591;78;21138;-79
2021/01/05 12:37:55;;;;;;;7.10;6.27;;;;;;;4.92;80.28;97972.06;2264149;78;21127;-79
2021/01/05 12:40:56;;;;;;;8.97;7.57;;;;;;;4.95;79.88;97972.13;2264361;78;21095;-80
2021/01/05 12:43:57;;;;;;;10.10;6.50;;;;;;;4.91;79.95;97974.62;2264138;78;21106;-79
2021/01/05 12:46:58;;;;;;;6.53;4.37;;;;;;;4.84;80.04;97978.80;2264265;78;21130;-80
2021/01/05 12:50:00;;;;;;;4.73;3.50;;;;;;;4.73;79.98;97973.82;2264554;78;21233;-79
2021/01/05 12:53:01;;;;;;;4.80;3.60;;;;;;;4.70;80.31;97973.76;2263597;78;21324;-80
2021/01/05 12:56:02;;;;;;;3.73;3.43;;;;;;;4.67;80.34;97973.69;2262833;78;21448;-79
2021/01/05 12:59:03;;;;;;;6.47;5.03;;;;;;;4.64;80.52;97974.50;2268956;78;21296;-80
2021/01/05 13:02:04;;;;;;;4.17;3.77;;;;;;;4.60;80.41;97976.57;2283915;78;21075;-81
2021/01/05 13:05:05;;;;;;;4.63;3.80;;;;;;;4.60;80.71;97980.45;2282900;78;21125;-79
2021/01/05 13:08:06;;;;;;;5.73;5.23;;;;;;;4.59;80.70;97978.70;2281994;78;21117;-78
2021/01/05 13:11:07;;;;;;;6.73;3.90;;;;;;;4.57;80.64;97980.38;2281768;78;21134;-79
2021/01/05 13:14:08;;;;;;;6.27;4.77;;;;;;;4.56;80.88;97981.22;2265255;78;21228;-78
2021/01/05 13:17:10;;;;;;;8.53;6.63;;;;;;;4.56;80.86;97977.77;2283589;78;21236;-79
2021/01/05 13:20:11;;;;;;;10.40;6.63;;;;;;;4.54;81.04;97983.32;2284464;78;21118;-79
2021/01/05 13:23:12;;;;;;;9.57;5.90;;;;;;;4.50;80.96;97986.67;2284507;78;21728;-78
2021/01/05 13:26:14;;;;;;;9.00;7.03;;;;;;;4.45;80.95;97983.99;2283942;78;21086;-79
2021/01/05 13:29:17;;;;;;;11.27;8.43;;;;;;;4.44;81.24;97988.70;2284279;78;21094;-79
2021/01/05 13:32:18;;;;;;;25.80;16.67;;;;;;;4.41;81.31;97988.22;2283585;78;21463;-79
2021/01/05 13:35:21;;;;;;;29.30;18.10;;;;;;;4.39;81.33;97990.31;2283151;78;21791;-79
2021/01/05 13:38:22;;;;;;;22.40;15.40;;;;;;;4.36;81.44;97989.83;2284001;78;21292;-80
2021/01/05 13:41:23;;;;;;;14.83;11.73;;;;;;;4.36;81.40;97993.70;2284418;78;21125;-79
2021/01/05 13:44:24;;;;;;;10.97;9.33;;;;;;;4.35;81.40;97995.83;2285066;78;21739;-79
2021/01/05 13:47:25;;;;;;;8.67;7.03;;;;;;;4.36;81.48;97992.83;2284722;78;21130;-78
2021/01/05 13:50:27;;;;;;;8.43;7.23;;;;;;;4.35;81.59;97997.55;2283942;78;21158;-77
2021/01/05 13:53:28;;;;;;;14.40;10.37;;;;;;;4.33;81.47;97993.60;2283132;78;21288;-78
2021/01/05 13:56:29;;;;;;;13.00;11.03;;;;;;;4.35;81.53;97994.55;2283824;78;21122;-78
2021/01/05 13:59:30;;;;;;;9.83;8.90;;;;;;;4.39;81.75;97995.48;2281300;77;21166;-77
2021/01/05 14:02:31;;;;;;;14.93;9.07;;;;;;;4.39;81.57;97999.36;2277636;78;21126;-78
2021/01/05 14:05:34;;;;;;;14.10;9.53;;;;;;;4.39;81.58;97995.48;2276803;78;21170;-78
2021/01/05 14:08:35;;;;;;;17.93;11.20;;;;;;;4.35;81.55;97995.83;2275974;78;21657;-79
2021/01/05 14:11:36;;;;;;;22.57;13.20;;;;;;;4.36;81.60;97995.41;2276770;78;21393;-76
2021/01/05 14:14:37;;;;;;;27.53;14.33;;;;;;;4.38;81.62;98002.78;2277266;78;21276;-78